M I D A S
Marine Information and Data Acquisition System
Tripno 811 of the Zeeleeuw from 2004-11-23 08:13:38 to 2004-11-23 15:31:57
Back to CruiseResearch ActivitiesStationsMapUnderway DataData graphs

EquipmentUnitsComment
TimeDGPSUTC
LatitudeDGPSDM.mWGS84
LongitudeDGPSDM.mWGS84
HeadingGyrodeg 
SOGDGPSknotsSpeed over ground
COGDGPSdegCourse over ground
DepthEcho soundermeters200 kHz
Missing or incorrect values are displayed as -999
Navigation data collected by the RV Zeeleeuw from 2004-11-23 06:49:41 to 2004-11-23 15:42:07
                                                                                    Next 1000 lines
Time Latitude Longitude Heading SOG COG Depth
2004-11-23 06:49:51 51°13.616 2°56.064 126.2 0.1 32 -999
2004-11-23 06:49:56 51°13.616 2°56.064 126.2   216 -999
2004-11-23 06:50:00 51°13.616 2°56.064 126.2   24 -999
2004-11-23 06:50:06 51°13.616 2°56.064 126.3   50 -999
2004-11-23 06:50:09 51°13.616 2°56.064 126.3   256 -999
2004-11-23 06:50:16 51°13.616 2°56.064 126.3   199 -999
2004-11-23 06:50:21 51°13.616 2°56.064 126.3   8 -999
2004-11-23 06:50:25 51°13.616 2°56.064 126.3   230 -999
2004-11-23 06:50:30 51°13.616 2°56.063 126.3   214 -999
2004-11-23 06:50:36 51°13.616 2°56.063 126.3   97 -999
2004-11-23 06:50:41 51°13.616 2°56.063 126.3   83 -999
2004-11-23 06:50:46 51°13.616 2°56.063 126.3   36 -999
2004-11-23 06:50:50 51°13.616 2°56.063 126.3   137 -999
2004-11-23 06:50:56 51°13.617 2°56.063 126.3   249 -999
2004-11-23 06:51:01 51°13.617 2°56.063 126.3   96 -999
2004-11-23 06:51:06 51°13.617 2°56.063 126.3   1 -999
2004-11-23 06:51:09 51°13.617 2°56.064 126.3   253 -999
2004-11-23 06:51:16 51°13.617 2°56.064 126.3   251 -999
2004-11-23 06:51:20 51°13.617 2°56.064 126.3   199 -999
2004-11-23 06:51:26 51°13.617 2°56.063 126.3   188 -999
2004-11-23 06:51:31 51°13.617 2°56.063 126.3   241 -999
2004-11-23 06:51:36 51°13.617 2°56.063 126.3   212 -999
2004-11-23 06:51:40 51°13.617 2°56.063 126.3   234 -999
2004-11-23 06:51:46 51°13.617 2°56.063 126.3   212 -999
2004-11-23 06:51:51 51°13.617 2°56.063 126.3   163 -999
2004-11-23 06:51:56 51°13.617 2°56.063 126.3   265 -999
2004-11-23 06:52:01 51°13.617 2°56.063 126.3   216 -999
2004-11-23 06:52:06 51°13.617 2°56.063 126.3   250 -999
2004-11-23 06:52:11 51°13.617 2°56.063 126.3   259 -999
2004-11-23 06:52:16 51°13.617 2°56.063 126.3   298 -999
2004-11-23 06:52:21 51°13.617 2°56.063 126.3   325 -999
2004-11-23 06:52:26 51°13.617 2°56.063 126.3   93 -999
2004-11-23 06:52:31 51°13.617 2°56.063 126.3   206 -999
2004-11-23 06:52:36 51°13.617 2°56.063 126.3   346 -999
2004-11-23 06:52:40 51°13.617 2°56.063 126.3   46 -999
2004-11-23 06:52:46 51°13.618 2°56.063 126.3   34 -999
2004-11-23 06:52:51 51°13.618 2°56.063 126.3   34 -999
2004-11-23 06:52:56 51°13.618 2°56.063 126.3   226 -999
2004-11-23 06:53:01 51°13.618 2°56.063 126.3   264 -999
2004-11-23 06:53:06 51°13.618 2°56.063 126.3   303 -999
2004-11-23 06:53:11 51°13.618 2°56.063 126.3   195 -999
2004-11-23 06:53:16 51°13.618 2°56.063 126.3   106 -999
2004-11-23 06:53:21 51°13.618 2°56.063 126.3   265 -999
2004-11-23 06:53:26 51°13.618 2°56.062 126.3   99 -999
2004-11-23 06:53:31 51°13.618 2°56.062 126.3   238 -999
2004-11-23 06:53:36 51°13.618 2°56.062 126.3   64 -999
2004-11-23 06:53:41 51°13.618 2°56.062 126.3   198 -999
2004-11-23 06:53:46 51°13.618 2°56.062 126.3   16 -999
2004-11-23 06:53:51 51°13.618 2°56.062 126.3   49 -999
2004-11-23 06:53:56 51°13.618 2°56.062 126.3   33 -999
2004-11-23 06:54:01 51°13.618 2°56.062 126.3   245 -999
2004-11-23 06:54:06 51°13.618 2°56.062 126.3   231 -999
2004-11-23 06:54:10 51°13.618 2°56.062 126.3   67 -999
2004-11-23 06:54:16 51°13.618 2°56.062 126.3   208 -999
2004-11-23 06:54:21 51°13.618 2°56.062 126.3   47 -999
2004-11-23 06:54:26 51°13.618 2°56.062 126.3   220 -999
2004-11-23 06:54:30 51°13.617 2°56.062 126.3   68 -999
2004-11-23 06:54:36 51°13.617 2°56.061 126.3   242 -999
2004-11-23 06:54:41 51°13.617 2°56.061 126.3   143 -999
2004-11-23 06:54:46 51°13.617 2°56.061 126.3   143 -999
2004-11-23 06:54:50 51°13.617 2°56.061 126.3   262 -999
2004-11-23 06:54:56 51°13.618 2°56.061 126.3   290 -999
2004-11-23 06:55:01 51°13.618 2°56.061 126.3   83 -999
2004-11-23 06:55:06 51°13.618 2°56.061 126.3   316 -999
2004-11-23 06:55:11 51°13.618 2°56.061 126.3   238 -999
2004-11-23 06:55:16 51°13.618 2°56.061 126.3   20 -999
2004-11-23 06:55:21 51°13.618 2°56.061 126.3   225 -999
2004-11-23 06:55:26 51°13.618 2°56.061 126.3   107 -999
2004-11-23 06:55:31 51°13.618 2°56.061 126.3   34 -999
2004-11-23 06:55:36 51°13.618 2°56.061 126.3   21 -999
2004-11-23 06:55:41 51°13.618 2°56.06 126.3   55 -999
2004-11-23 06:55:46 51°13.618 2°56.06 126.3   222 -999
2004-11-23 06:55:51 51°13.618 2°56.06 126.3   237 -999
2004-11-23 06:55:56 51°13.618 2°56.06 126.3   265 -999
2004-11-23 06:56:01 51°13.618 2°56.06 126.3   201 -999
2004-11-23 06:56:06 51°13.618 2°56.06 126.3   231 -999
2004-11-23 06:56:11 51°13.618 2°56.06 126.3   282 -999
2004-11-23 06:56:16 51°13.618 2°56.06 126.3   23 -999
2004-11-23 06:56:21 51°13.618 2°56.06 126.3   222 -999
2004-11-23 06:56:26 51°13.618 2°56.06 126.3     -999
2004-11-23 06:56:30 51°13.618 2°56.06 126.3     -999
2004-11-23 06:56:36 51°13.618 2°56.06 126.3   3 -999
2004-11-23 06:56:40 51°13.618 2°56.06 126.3   200 -999
2004-11-23 06:56:46 51°13.618 2°56.06 126.3   178 -999
2004-11-23 06:56:50 51°13.618 2°56.06 126.3   19 -999
2004-11-23 06:56:56 51°13.618 2°56.06 126.3   216 -999
2004-11-23 06:57:01 51°13.618 2°56.06 126.3   102 -999
2004-11-23 06:57:06 51°13.618 2°56.06 126.3   264 -999
2004-11-23 06:57:11 51°13.618 2°56.06 126.2   229 -999
2004-11-23 06:57:16 51°13.618 2°56.06 126.2   223 -999
2004-11-23 06:57:20 51°13.618 2°56.06 126.2   197 -999
2004-11-23 06:57:26 51°13.618 2°56.06 126.2   268 -999
2004-11-23 06:57:31 51°13.618 2°56.06 126.2   324 -999
2004-11-23 06:57:36 51°13.618 2°56.06 126.2   308 -999
2004-11-23 06:57:41 51°13.618 2°56.06 126.2   356 -999
2004-11-23 06:57:46 51°13.617 2°56.06 126.2   215 -999
2004-11-23 06:57:51 51°13.617 2°56.06 126.2   209 -999
2004-11-23 06:57:56 51°13.617 2°56.06 126.2   356 -999
2004-11-23 06:58:01 51°13.617 2°56.06 126.2   10 -999
2004-11-23 06:58:06 51°13.617 2°56.06 126.2   198 -999
2004-11-23 06:58:11 51°13.617 2°56.06 126.2   211 -999
2004-11-23 06:58:16 51°13.617 2°56.06 126.2   216 -999
2004-11-23 06:58:21 51°13.617 2°56.06 126.2   205 -999
2004-11-23 06:58:26 51°13.617 2°56.06 126.2   186 -999
2004-11-23 06:58:30 51°13.617 2°56.06 126.2   240 -999
2004-11-23 06:58:36 51°13.617 2°56.06 126.2   215 -999
2004-11-23 06:58:41 51°13.617 2°56.06 126.2   206 -999
2004-11-23 06:58:46 51°13.617 2°56.06 126.2   122 -999
2004-11-23 06:58:51 51°13.618 2°56.06 126.2   10 -999
2004-11-23 06:58:56 51°13.618 2°56.06 126.2   39 -999
2004-11-23 06:59:01 51°13.618 2°56.06 126.2   223 -999
2004-11-23 06:59:06 51°13.618 2°56.06 126.2   299 -999
2004-11-23 06:59:10 51°13.618 2°56.06 126.2   324 -999
2004-11-23 06:59:16 51°13.618 2°56.06 126.2   139 -999
2004-11-23 06:59:20 51°13.618 2°56.06 126.2   197 -999
2004-11-23 06:59:26 51°13.618 2°56.06 126.2   274 -999
2004-11-23 06:59:29 51°13.618 2°56.06 126.2   196 -999
2004-11-23 06:59:36 51°13.618 2°56.06 126.2   133 -999
2004-11-23 06:59:41 51°13.618 2°56.06 126.2   141 -999
2004-11-23 06:59:46 51°13.618 2°56.06 126.2   59 -999
2004-11-23 06:59:51 51°13.618 2°56.06 126.2   140 -999
2004-11-23 06:59:56 51°13.618 2°56.06 126.2   240 -999
2004-11-23 07:00:01 51°13.618 2°56.06 126.2   196 -999
2004-11-23 07:00:05 51°13.618 2°56.06 126.2   34 -999
2004-11-23 07:00:10 51°13.618 2°56.06 126.2   89 -999
2004-11-23 07:00:16 51°13.618 2°56.06 126.2   291 -999
2004-11-23 07:00:21 51°13.619 2°56.06 126.2   336 -999
2004-11-23 07:00:25 51°13.619 2°56.06 126.2   194 -999
2004-11-23 07:00:30 51°13.619 2°56.06 126.2   170 -999
2004-11-23 07:00:36 51°13.619 2°56.06 126.2   200 -999
2004-11-23 07:00:40 51°13.619 2°56.06 126.2   114 -999
2004-11-23 07:00:45 51°13.619 2°56.06 126.2   225 -999
2004-11-23 07:00:51 51°13.619 2°56.06 126.2   218 -999
2004-11-23 07:00:56 51°13.619 2°56.06 126.2   231 -999
2004-11-23 07:01:01 51°13.619 2°56.06 126.2   227 -999
2004-11-23 07:01:06 51°13.619 2°56.06 126.2   56 -999
2004-11-23 07:01:11 51°13.619 2°56.06 126.2   244 -999
2004-11-23 07:01:16 51°13.619 2°56.06 126.2   180 -999
2004-11-23 07:01:20 51°13.619 2°56.06 126.2   332 -999
2004-11-23 07:01:26 51°13.619 2°56.06 126.2   319 -999
2004-11-23 07:01:31 51°13.619 2°56.06 126.2   41 -999
2004-11-23 07:01:36 51°13.619 2°56.06 126.2   20 -999
2004-11-23 07:01:40 51°13.619 2°56.06 126.2   241 -999
2004-11-23 07:01:46 51°13.619 2°56.06 126.2   250 -999
2004-11-23 07:01:51 51°13.619 2°56.06 126.2   173 -999
2004-11-23 07:01:56 51°13.619 2°56.06 126.1   173 -999
2004-11-23 07:02:01 51°13.619 2°56.06 126.1   274 -999
2004-11-23 07:02:06 51°13.619 2°56.06 126.1   274 -999
2004-11-23 07:02:11 51°13.619 2°56.06 126.1   145 -999
2004-11-23 07:02:16 51°13.619 2°56.06 126.1   184 -999
2004-11-23 07:02:20 51°13.619 2°56.06 126.1   261 -999
2004-11-23 07:02:26 51°13.619 2°56.06 126.1   231 -999
2004-11-23 07:02:31 51°13.619 2°56.06 126.1   227 -999
2004-11-23 07:02:36 51°13.619 2°56.06 126.1   351 -999
2004-11-23 07:02:41 51°13.619 2°56.06 126.1   8 -999
2004-11-23 07:02:45 51°13.619 2°56.06 126.1   36 -999
2004-11-23 07:02:49 51°13.62 2°56.06 126.1   248 -999
2004-11-23 07:02:56 51°13.62 2°56.059 126.1   299 -999
2004-11-23 07:03:00 51°13.62 2°56.059 126.1   294 -999
2004-11-23 07:03:06 51°13.62 2°56.059 126.1   250 -999
2004-11-23 07:03:11 51°13.62 2°56.059 126.1   145 -999
2004-11-23 07:03:16 51°13.62 2°56.059 126.1   10 -999
2004-11-23 07:03:21 51°13.62 2°56.059 126.1   282 -999
2004-11-23 07:03:24 51°13.62 2°56.059 126.1   70 -999
2004-11-23 07:03:31 51°13.62 2°56.059 126.1   276 -999
2004-11-23 07:03:36 51°13.62 2°56.059 126.1   253 -999
2004-11-23 07:03:41 51°13.62 2°56.059 126.1   182 -999
2004-11-23 07:03:45 51°13.62 2°56.059 126.1   189 -999
2004-11-23 07:03:51 51°13.62 2°56.059 126.1   11 -999
2004-11-23 07:03:56 51°13.62 2°56.059 126   355 -999
2004-11-23 07:04:01 51°13.62 2°56.059 126   318 -999
2004-11-23 07:04:05 51°13.62 2°56.059 126   350 -999
2004-11-23 07:04:11 51°13.62 2°56.059 126   34 -999
2004-11-23 07:04:16 51°13.62 2°56.059 126   137 -999
2004-11-23 07:04:21 51°13.62 2°56.059 126   232 -999
2004-11-23 07:04:26 51°13.62 2°56.059 126   285 -999
2004-11-23 07:04:31 51°13.62 2°56.059 126   167 -999
2004-11-23 07:04:36 51°13.62 2°56.06 126   74 -999
2004-11-23 07:04:40 51°13.62 2°56.06 126   29 -999
2004-11-23 07:04:46 51°13.62 2°56.06 126   294 -999
2004-11-23 07:04:49 51°13.62 2°56.06 126   233 -999
2004-11-23 07:04:56 51°13.62 2°56.06 126   51 -999
2004-11-23 07:05:01 51°13.62 2°56.06 126   51 -999
2004-11-23 07:05:06 51°13.62 2°56.06 126   264 -999
2004-11-23 07:05:11 51°13.62 2°56.06 126   258 -999
2004-11-23 07:05:16 51°13.62 2°56.06 126   19 -999
2004-11-23 07:05:21 51°13.62 2°56.06 126   132 -999
2004-11-23 07:05:26 51°13.62 2°56.06 126   13 -999
2004-11-23 07:05:31 51°13.62 2°56.06 126   33 -999
2004-11-23 07:05:36 51°13.62 2°56.06 126   200 -999
2004-11-23 07:05:40 51°13.619 2°56.06 126   60 -999
2004-11-23 07:05:46 51°13.619 2°56.06 126   263 -999
2004-11-23 07:05:49 51°13.619 2°56.06 126   33 -999
2004-11-23 07:05:56 51°13.619 2°56.06 125.9   346 -999
2004-11-23 07:06:00 51°13.619 2°56.06 125.9   346 -999
2004-11-23 07:06:05 51°13.619 2°56.06 125.9   274 -999
2004-11-23 07:06:10 51°13.619 2°56.06 125.9   251 -999
2004-11-23 07:06:16 51°13.619 2°56.06 126   203 -999
2004-11-23 07:06:20 51°13.619 2°56.06 126   32 -999
2004-11-23 07:06:26 51°13.619 2°56.06 126   304 -999
2004-11-23 07:06:31 51°13.619 2°56.06 125.9   31 -999
2004-11-23 07:06:36 51°13.618 2°56.06 125.9   5 -999
2004-11-23 07:06:40 51°13.618 2°56.06 125.9   15 -999
2004-11-23 07:06:46 51°13.618 2°56.06 125.9   220 -999
2004-11-23 07:06:51 51°13.618 2°56.06 125.9   111 -999
2004-11-23 07:06:56 51°13.618 2°56.06 125.9   79 -999
2004-11-23 07:07:01 51°13.618 2°56.06 125.9   57 -999
2004-11-23 07:07:06 51°13.618 2°56.06 125.9   159 -999
2004-11-23 07:07:09 51°13.618 2°56.06 125.9   38 -999
2004-11-23 07:07:16 51°13.618 2°56.06 125.9   185 -999
2004-11-23 07:07:21 51°13.618 2°56.06 125.9   334 -999
2004-11-23 07:07:25 51°13.618 2°56.06 125.9   230 -999
2004-11-23 07:07:31 51°13.618 2°56.06 125.9   197 -999
2004-11-23 07:07:36 51°13.618 2°56.06 125.9   41 -999
2004-11-23 07:07:40 51°13.618 2°56.06 125.9   153 -999
2004-11-23 07:07:46 51°13.618 2°56.06 125.9   198 -999
2004-11-23 07:07:51 51°13.618 2°56.06 125.9   108 -999
2004-11-23 07:07:56 51°13.618 2°56.06 125.9   31 -999
2004-11-23 07:08:01 51°13.618 2°56.06 125.9   156 -999
2004-11-23 07:08:06 51°13.618 2°56.06 125.9   130 -999
2004-11-23 07:08:11 51°13.618 2°56.06 125.9   161 -999
2004-11-23 07:08:16 51°13.618 2°56.06 125.9   52 -999
2004-11-23 07:08:21 51°13.618 2°56.06 125.9   231 -999
2004-11-23 07:08:26 51°13.618 2°56.06 125.9   231 -999
2004-11-23 07:08:31 51°13.618 2°56.06 125.9   36 -999
2004-11-23 07:08:36 51°13.618 2°56.06 125.9   305 -999
2004-11-23 07:08:41 51°13.618 2°56.06 125.9   237 -999
2004-11-23 07:08:46 51°13.618 2°56.06 125.8   303 -999
2004-11-23 07:08:51 51°13.618 2°56.06 125.8   145 -999
2004-11-23 07:08:56 51°13.618 2°56.06 125.8   145 -999
2004-11-23 07:09:01 51°13.618 2°56.059 125.8   138 -999
2004-11-23 07:09:05 51°13.618 2°56.059 125.8   138 -999
2004-11-23 07:09:11 51°13.619 2°56.059 125.8   24 -999
2004-11-23 07:09:16 51°13.619 2°56.059 125.8   71 -999
2004-11-23 07:09:20 51°13.619 2°56.059 125.8   13 -999
2004-11-23 07:09:26 51°13.619 2°56.059 125.8   357 -999
2004-11-23 07:09:31 51°13.619 2°56.059 125.7   36 -999
2004-11-23 07:09:36 51°13.618 2°56.059 125.7   38 -999
2004-11-23 07:09:41 51°13.618 2°56.059 125.7   168 -999
2004-11-23 07:09:46 51°13.618 2°56.059 125.7   256 -999
2004-11-23 07:09:49 51°13.618 2°56.06 125.7   32 -999
2004-11-23 07:09:56 51°13.618 2°56.06 125.7   21 -999
2004-11-23 07:10:00 51°13.618 2°56.06 125.7   265 -999
2004-11-23 07:10:06 51°13.618 2°56.06 125.7   222 -999
2004-11-23 07:10:11 51°13.618 2°56.06 125.7   359 -999
2004-11-23 07:10:16 51°13.618 2°56.06 125.7   45 -999
2004-11-23 07:10:21 51°13.618 2°56.06 125.7   260 -999
2004-11-23 07:10:26 51°13.618 2°56.06 125.7   260 -999
2004-11-23 07:10:31 51°13.618 2°56.06 125.7   137 -999
2004-11-23 07:10:36 51°13.618 2°56.06 125.7   215 -999
2004-11-23 07:10:41 51°13.618 2°56.06 125.7   49 -999
2004-11-23 07:10:46 51°13.618 2°56.06 125.7   293 -999
2004-11-23 07:10:49 51°13.618 2°56.06 125.7   136 -999
2004-11-23 07:10:56 51°13.618 2°56.06 125.7   18 -999
2004-11-23 07:11:00 51°13.618 2°56.06 125.7   26 -999
2004-11-23 07:11:06 51°13.618 2°56.06 125.7   243 -999
2004-11-23 07:11:11 51°13.618 2°56.06 125.7   231 -999
2004-11-23 07:11:16 51°13.618 2°56.06 125.7   101 -999
2004-11-23 07:11:20 51°13.618 2°56.06 125.7   204 -999
2004-11-23 07:11:26 51°13.618 2°56.06 125.7   193 -999
2004-11-23 07:11:31 51°13.618 2°56.06 125.7   146 -999
2004-11-23 07:11:36 51°13.618 2°56.06 125.7   187 -999
2004-11-23 07:11:40 51°13.618 2°56.06 125.7   31 -999
2004-11-23 07:11:46 51°13.619 2°56.06 125.7   74 -999
2004-11-23 07:11:51 51°13.619 2°56.06 125.7   321 -999
2004-11-23 07:11:56 51°13.619 2°56.06 125.7   321 -999
2004-11-23 07:12:00 51°13.619 2°56.06 125.7   350 -999
2004-11-23 07:12:06 51°13.619 2°56.06 125.7   84 -999
2004-11-23 07:12:11 51°13.619 2°56.06 125.7   56 -999
2004-11-23 07:12:16 51°13.619 2°56.06 125.7   352 -999
2004-11-23 07:12:21 51°13.619 2°56.06 125.7   192 -999
2004-11-23 07:12:26 51°13.619 2°56.06 125.7   131 -999
2004-11-23 07:12:31 51°13.619 2°56.06 125.7   74 -999
2004-11-23 07:12:36 51°13.619 2°56.06 125.7   302 -999
2004-11-23 07:12:40 51°13.619 2°56.06 125.7   228 -999
2004-11-23 07:12:46 51°13.619 2°56.06 125.7   6 -999
2004-11-23 07:12:51 51°13.619 2°56.06 125.7   308 -999
2004-11-23 07:12:56 51°13.619 2°56.06 125.7   224 -999
2004-11-23 07:13:00 51°13.619 2°56.06 125.7   348 -999
2004-11-23 07:13:06 51°13.619 2°56.06 125.7   325 -999
2004-11-23 07:13:11 51°13.619 2°56.06 125.7   9 -999
2004-11-23 07:13:16 51°13.619 2°56.06 125.7   340 -999
2004-11-23 07:13:20 51°13.619 2°56.06 125.6   9 -999
2004-11-23 07:13:25 51°13.619 2°56.06 125.6   155 -999
2004-11-23 07:13:31 51°13.619 2°56.06 125.6   43 -999
2004-11-23 07:13:36 51°13.619 2°56.06 125.6   43 -999
2004-11-23 07:13:40 51°13.619 2°56.06 125.6   231 -999
2004-11-23 07:13:46 51°13.619 2°56.06 125.6   49 -999
2004-11-23 07:13:49 51°13.619 2°56.06 125.6   8 -999
2004-11-23 07:13:56 51°13.619 2°56.06 125.6   58 -999
2004-11-23 07:14:00 51°13.619 2°56.06 125.6   357 -999
2004-11-23 07:14:06 51°13.619 2°56.06 125.6   286 -999
2004-11-23 07:14:11 51°13.62 2°56.06 125.6   10 -999
2004-11-23 07:14:16 51°13.62 2°56.06 125.6   242 -999
2004-11-23 07:14:20 51°13.62 2°56.06 125.6   44 -999
2004-11-23 07:14:26 51°13.62 2°56.06 125.6   19 -999
2004-11-23 07:14:30 51°13.62 2°56.06 125.6   43 -999
2004-11-23 07:14:36 51°13.62 2°56.06 125.6   238 -999
2004-11-23 07:14:41 51°13.62 2°56.06 125.6   253 -999
2004-11-23 07:14:46 51°13.619 2°56.06 125.6   283 -999
2004-11-23 07:14:51 51°13.619 2°56.06 125.6   31 -999
2004-11-23 07:14:56 51°13.619 2°56.059 125.6   43 -999
2004-11-23 07:15:01 51°13.619 2°56.059 125.6   291 -999
2004-11-23 07:15:06 51°13.619 2°56.059 125.6   73 -999
2004-11-23 07:15:09 51°13.619 2°56.059 125.6   355 -999
2004-11-23 07:15:16 51°13.619 2°56.059 125.6   242 -999
2004-11-23 07:15:21 51°13.619 2°56.059 125.6   235 -999
2004-11-23 07:15:26 51°13.619 2°56.059 125.6   353 -999
2004-11-23 07:15:29 51°13.619 2°56.059 125.6   174 -999
2004-11-23 07:15:36 51°13.619 2°56.059 125.6   356 -999
2004-11-23 07:15:40 51°13.619 2°56.059 125.6   3 -999
2004-11-23 07:15:45 51°13.619 2°56.059 125.6   18 -999
2004-11-23 07:15:50 51°13.619 2°56.059 125.6   282 -999
2004-11-23 07:15:56 51°13.617 2°56.059 125.6   43 -999
2004-11-23 07:16:00 51°13.616 2°56.058 125.6   275 -999
2004-11-23 07:16:05 51°13.615 2°56.058 125.6   359 -999
2004-11-23 07:16:11 51°13.615 2°56.058 125.6   267 -999
2004-11-23 07:16:16 51°13.615 2°56.059 125.6   47 -999
2004-11-23 07:16:21 51°13.615 2°56.059 125.6   235 -999
2004-11-23 07:16:25 51°13.615 2°56.059 125.6   241 -999
2004-11-23 07:16:31 51°13.616 2°56.059 125.6     -999
2004-11-23 07:16:36 51°13.616 2°56.059 125.6   54 -999
2004-11-23 07:16:40 51°13.616 2°56.059 125.6   358 -999
2004-11-23 07:16:46 51°13.616 2°56.059 125.6   339 -999
2004-11-23 07:16:51 51°13.616 2°56.059 125.6   257 -999
2004-11-23 07:16:56 51°13.616 2°56.059 125.6   257 -999
2004-11-23 07:17:01 51°13.616 2°56.059 125.6   76 -999
2004-11-23 07:17:06 51°13.617 2°56.059 125.6   12 -999
2004-11-23 07:17:09 51°13.617 2°56.059 125.6   6 -999
2004-11-23 07:17:16 51°13.617 2°56.059 125.6   14 -999
2004-11-23 07:17:20 51°13.617 2°56.06 125.6   224 -999
2004-11-23 07:17:26 51°13.617 2°56.06 125.6   165 -999
2004-11-23 07:17:31 51°13.617 2°56.06 125.6   231 -999
2004-11-23 07:17:36 51°13.618 2°56.059 125.6   47 -999
2004-11-23 07:17:40 51°13.618 2°56.059 125.6   277 -999
2004-11-23 07:17:45 51°13.618 2°56.059 125.6   18 -999
2004-11-23 07:17:49 51°13.618 2°56.059 125.6   318 -999
2004-11-23 07:17:56 51°13.618 2°56.059 125.6   218 -999
2004-11-23 07:18:01 51°13.618 2°56.059 125.6   24 -999
2004-11-23 07:18:06 51°13.618 2°56.059 125.6   58 -999
2004-11-23 07:18:09 51°13.619 2°56.059 125.6   114 -999
2004-11-23 07:18:16 51°13.619 2°56.059 125.6   193 -999
2004-11-23 07:18:20 51°13.619 2°56.059 125.6   227 -999
2004-11-23 07:18:26 51°13.619 2°56.059 125.6   356 -999
2004-11-23 07:18:29 51°13.619 2°56.059 125.6   279 -999
2004-11-23 07:18:36 51°13.619 2°56.06 125.6   1 -999
2004-11-23 07:18:40 51°13.619 2°56.06 125.6   229 -999
2004-11-23 07:18:46 51°13.618 2°56.06 125.6   332 -999
2004-11-23 07:18:51 51°13.618 2°56.06 125.6   34 -999
2004-11-23 07:18:56 51°13.618 2°56.06 125.6   74 -999
2004-11-23 07:19:01 51°13.618 2°56.06 125.6   214 -999
2004-11-23 07:19:06 51°13.618 2°56.06 125.6   216 -999
2004-11-23 07:19:11 51°13.618 2°56.06 125.6   28 -999
2004-11-23 07:19:16 51°13.618 2°56.06 125.6   22 -999
2004-11-23 07:19:20 51°13.618 2°56.06 125.6   11 -999
2004-11-23 07:19:26 51°13.619 2°56.06 125.6   278 -999
2004-11-23 07:19:31 51°13.619 2°56.06 125.6   106 -999
2004-11-23 07:19:36 51°13.619 2°56.06 125.6   216 -999
2004-11-23 07:19:41 51°13.619 2°56.06 125.6   299 -999
2004-11-23 07:19:45 51°13.619 2°56.06 125.6   81 -999
2004-11-23 07:19:51 51°13.619 2°56.06 125.6   239 -999
2004-11-23 07:19:56 51°13.619 2°56.06 125.6   208 -999
2004-11-23 07:20:01 51°13.619 2°56.06 125.6   55 -999
2004-11-23 07:20:06 51°13.619 2°56.06 125.6   55 -999
2004-11-23 07:20:11 51°13.619 2°56.06 125.6   173 -999
2004-11-23 07:20:16 51°13.619 2°56.06 125.6   233 -999
2004-11-23 07:20:21 51°13.619 2°56.06 125.7   27 -999
2004-11-23 07:20:25 51°13.619 2°56.06 125.7   174 -999
2004-11-23 07:20:31 51°13.619 2°56.06 125.7   36 -999
2004-11-23 07:20:36 51°13.619 2°56.06 125.7   36 -999
2004-11-23 07:20:41 51°13.619 2°56.06 125.7   268 -999
2004-11-23 07:20:46 51°13.619 2°56.06 125.7   224 -999
2004-11-23 07:20:49 51°13.619 2°56.06 125.7   218 -999
2004-11-23 07:20:56 51°13.619 2°56.06 125.7   334 -999
2004-11-23 07:21:01 51°13.619 2°56.06 125.7   76 -999
2004-11-23 07:21:06 51°13.619 2°56.06 125.7   153 -999
2004-11-23 07:21:11 51°13.619 2°56.06 125.7   212 -999
2004-11-23 07:21:16 51°13.619 2°56.06 125.7   267 -999
2004-11-23 07:21:21 51°13.619 2°56.06 125.7   245 -999
2004-11-23 07:21:25 51°13.619 2°56.06 125.7   35 -999
2004-11-23 07:21:31 51°13.619 2°56.06 125.7   261 -999
2004-11-23 07:21:36 51°13.619 2°56.06 125.7   261 -999
2004-11-23 07:21:40 51°13.619 2°56.06 125.7   350 -999
2004-11-23 07:21:46 51°13.619 2°56.06 125.7   343 -999
2004-11-23 07:21:49 51°13.619 2°56.06 125.7   243 -999
2004-11-23 07:21:56 51°13.619 2°56.06 125.7   86 -999
2004-11-23 07:22:01 51°13.618 2°56.06 125.7   41 -999
2004-11-23 07:22:04 51°13.618 2°56.06 125.7   213 -999
2004-11-23 07:22:10 51°13.618 2°56.06 125.7   245 -999
2004-11-23 07:22:16 51°13.618 2°56.06 125.7   181 -999
2004-11-23 07:22:21 51°13.618 2°56.06 125.7   237 -999
2004-11-23 07:22:26 51°13.618 2°56.06 125.7   24 -999
2004-11-23 07:22:31 51°13.618 2°56.06 125.7   247 -999
2004-11-23 07:22:36 51°13.618 2°56.06 125.7   358 -999
2004-11-23 07:22:40 51°13.618 2°56.06 125.7   343 -999
2004-11-23 07:22:45 51°13.618 2°56.06 125.7   2 -999
2004-11-23 07:22:49 51°13.618 2°56.06 125.7   339 -999
2004-11-23 07:22:56 51°13.618 2°56.06 125.7   21 -999
2004-11-23 07:23:01 51°13.618 2°56.06 125.7   272 -999
2004-11-23 07:23:06 51°13.618 2°56.06 125.7   8 -999
2004-11-23 07:23:08 51°13.618 2°56.06 125.7   332 -999
2004-11-23 07:23:16 51°13.618 2°56.06 125.7   24 -999
2004-11-23 07:23:20 51°13.618 2°56.061 125.7   250 -999
2004-11-23 07:23:24 51°13.618 2°56.061 125.7   31 -999
2004-11-23 07:23:31 51°13.618 2°56.061 125.7   34 -999
2004-11-23 07:23:36 51°13.618 2°56.06 125.7   2 -999
2004-11-23 07:23:41 51°13.618 2°56.06 125.7   325 -999
2004-11-23 07:23:45 51°13.618 2°56.06 125.7   52 -999
2004-11-23 07:23:51 51°13.617 2°56.06 125.7   110 -999
2004-11-23 07:23:56 51°13.617 2°56.06 125.7   110 -999
2004-11-23 07:24:01 51°13.617 2°56.06 125.7   53 -999
2004-11-23 07:24:05 51°13.618 2°56.06 125.7   275 -999
2004-11-23 07:24:11 51°13.618 2°56.059 125.7   220 -999
2004-11-23 07:24:16 51°13.618 2°56.059 125.7   242 -999
2004-11-23 07:24:20 51°13.618 2°56.059 125.7   154 -999
2004-11-23 07:24:24 51°13.618 2°56.06 125.7   20 -999
2004-11-23 07:24:31 51°13.618 2°56.06 125.7   284 -999
2004-11-23 07:24:36 51°13.618 2°56.06 125.7   192 -999
2004-11-23 07:24:41 51°13.618 2°56.06 125.7   213 -999
2004-11-23 07:24:45 51°13.618 2°56.06 125.7   353 -999
2004-11-23 07:24:51 51°13.618 2°56.06 125.7   28 -999
2004-11-23 07:24:56 51°13.618 2°56.06 125.7   70 -999
2004-11-23 07:25:00 51°13.618 2°56.06 125.7   310 -999
2004-11-23 07:25:05 51°13.618 2°56.061 125.7   236 -999
2004-11-23 07:25:11 51°13.618 2°56.061 125.7   358 -999
2004-11-23 07:25:16 51°13.619 2°56.061 125.7   18 -999
2004-11-23 07:25:20 51°13.619 2°56.061 125.7   200 -999
2004-11-23 07:25:26 51°13.619 2°56.061 125.7   21 -999
2004-11-23 07:25:30 51°13.619 2°56.062 125.7   29 -999
2004-11-23 07:25:36 51°13.62 2°56.062 125.7   354 -999
2004-11-23 07:25:41 51°13.62 2°56.062 125.7   223 -999
2004-11-23 07:25:46 51°13.62 2°56.063 125.7   259 -999
2004-11-23 07:25:51 51°13.62 2°56.063 125.7   309 -999
2004-11-23 07:25:56 51°13.62 2°56.063 125.7   223 -999
2004-11-23 07:26:00 51°13.62 2°56.063 125.7   304 -999
2004-11-23 07:26:06 51°13.62 2°56.063 125.7   96 -999
2004-11-23 07:26:11 51°13.621 2°56.062 125.6   2 -999
2004-11-23 07:26:16 51°13.621 2°56.062 125.6   311 -999
2004-11-23 07:26:20 51°13.622 2°56.062 125.6   1 -999
2004-11-23 07:26:24 51°13.622 2°56.062 125.6   12 -999
2004-11-23 07:26:31 51°13.622 2°56.061 125.6   339 -999
2004-11-23 07:26:36 51°13.622 2°56.061 125.6   339 -999
2004-11-23 07:26:40 51°13.622 2°56.061 125.6   224 -999
2004-11-23 07:26:45 51°13.622 2°56.061 125.6   317 -999
2004-11-23 07:26:50 51°13.622 2°56.061 125.6   55 -999
2004-11-23 07:26:56 51°13.621 2°56.061 125.6   6 -999
2004-11-23 07:27:00 51°13.621 2°56.061 125.6   37 -999
2004-11-23 07:27:06 51°13.621 2°56.061 125.6   48 -999
2004-11-23 07:27:10 51°13.621 2°56.061 125.6   292 -999
2004-11-23 07:27:16 51°13.621 2°56.061 125.6   41 -999
2004-11-23 07:27:21 51°13.621 2°56.061 125.6   339 -999
2004-11-23 07:27:26 51°13.621 2°56.061 125.6   323 -999
2004-11-23 07:27:30 51°13.621 2°56.061 125.6   326 -999
2004-11-23 07:27:36 51°13.621 2°56.061 125.6   226 -999
2004-11-23 07:27:41 51°13.621 2°56.061 125.6   267 -999
2004-11-23 07:27:45 51°13.62 2°56.061 125.6   12 -999
2004-11-23 07:27:50 51°13.62 2°56.061 125.6   58 -999
2004-11-23 07:27:56 51°13.62 2°56.061 125.6   257 -999
2004-11-23 07:28:00 51°13.62 2°56.061 125.6   21 -999
2004-11-23 07:28:06 51°13.62 2°56.061 125.6   9 -999
2004-11-23 07:28:10 51°13.62 2°56.061 125.6   307 -999
2004-11-23 07:28:16 51°13.62 2°56.061 125.6   18 -999
2004-11-23 07:28:21 51°13.62 2°56.061 125.6   18 -999
2004-11-23 07:28:26 51°13.619 2°56.061 125.6   67 -999
2004-11-23 07:28:31 51°13.619 2°56.061 125.6   352 -999
2004-11-23 07:28:36 51°13.619 2°56.061 125.6   223 -999
2004-11-23 07:28:40 51°13.619 2°56.061 125.6   357 -999
2004-11-23 07:28:46 51°13.619 2°56.061 125.6   325 -999
2004-11-23 07:28:49 51°13.619 2°56.061 125.6   358 -999
2004-11-23 07:28:56 51°13.619 2°56.061 125.6   7 -999
2004-11-23 07:29:00 51°13.619 2°56.061 125.6   6 -999
2004-11-23 07:29:06 51°13.618 2°56.061 125.6   253 -999
2004-11-23 07:29:08 51°13.618 2°56.061 125.6   239 -999
2004-11-23 07:29:16 51°13.618 2°56.061 125.6   211 -999
2004-11-23 07:29:21 51°13.618 2°56.061 125.6   215 -999
2004-11-23 07:29:25 51°13.618 2°56.061 125.6   215 -999
2004-11-23 07:29:31 51°13.618 2°56.061 125.6   232 -999
2004-11-23 07:29:36 51°13.618 2°56.061 125.6   346 -999
2004-11-23 07:29:41 51°13.617 2°56.061 125.6   308 -999
2004-11-23 07:29:46 51°13.617 2°56.061 125.6   351 -999
2004-11-23 07:29:49 51°13.617 2°56.061 125.6   342 -999
2004-11-23 07:29:56 51°13.617 2°56.061 125.6   81 -999
2004-11-23 07:30:00 51°13.617 2°56.061 125.6   85 -999
2004-11-23 07:30:06 51°13.617 2°56.061 125.6   10 -999
2004-11-23 07:30:09 51°13.617 2°56.061 125.7   187 -999
2004-11-23 07:30:16 51°13.617 2°56.061 125.7   202 -999
2004-11-23 07:30:20 51°13.617 2°56.061 125.7   350 -999
2004-11-23 07:30:38 51°13.617 2°56.061 125.7     -999
2004-11-23 07:30:42 51°13.617 2°56.061 125.7   18 -999
2004-11-23 07:30:46 51°13.617 2°56.061 125.7   34 -999
2004-11-23 07:30:52 51°13.617 2°56.061 125.7   328 -999
2004-11-23 07:30:57 51°13.617 2°56.061 125.7   306 -999
2004-11-23 07:31:01 51°13.617 2°56.061 125.7   251 -999
2004-11-23 07:31:36 51°13.617 2°56.06 125.7   22 9.3
2004-11-23 07:31:40 51°13.617 2°56.06 125.7   22 9.3
2004-11-23 07:31:46 51°13.617 2°56.06 125.7   22 9.3
2004-11-23 07:31:48 51°13.617 2°56.06 125.7   337 9.3
2004-11-23 07:31:56 51°13.617 2°56.06 125.7   18 9.3
2004-11-23 07:32:00 51°13.618 2°56.06 125.7   18 9.3
2004-11-23 07:32:06 51°13.618 2°56.061 125.7   18 9.2
2004-11-23 07:32:11 51°13.618 2°56.061 125.7   254 9.2
2004-11-23 07:32:16 51°13.618 2°56.061 125.7   254 9.2
2004-11-23 07:32:20 51°13.618 2°56.061 125.7   13 9.3
2004-11-23 07:32:25 51°13.618 2°56.061 125.7   3 9.2
2004-11-23 07:32:29 51°13.618 2°56.061 125.7   16 9.2
2004-11-23 07:32:36 51°13.618 2°56.061 125.7   354 9.2
2004-11-23 07:32:40 51°13.619 2°56.061 125.7   354 9.2
2004-11-23 07:32:44 51°13.619 2°56.061 125.7   225 9.2
2004-11-23 07:32:49 51°13.619 2°56.061 125.7   225 9.2
2004-11-23 07:32:56 51°13.62 2°56.061 125.7   225 9.2
2004-11-23 07:33:01 51°13.62 2°56.061 125.7   326 9.2
2004-11-23 07:33:06 51°13.621 2°56.061 125.7   326 9.2
2004-11-23 07:33:10 51°13.621 2°56.061 125.7   326 9.2
2004-11-23 07:33:15 51°13.621 2°56.061 125.7   6 9.3
2004-11-23 07:33:20 51°13.621 2°56.061 125.7   357 9.2
2004-11-23 07:33:25 51°13.621 2°56.061 125.7   357 9.2
2004-11-23 07:33:29 51°13.621 2°56.061 125.7   27 9.3
2004-11-23 07:33:36 51°13.621 2°56.061 125.7   27 9.2
2004-11-23 07:33:39 51°13.621 2°56.061 125.7   25 9.2
2004-11-23 07:33:46 51°13.621 2°56.061 125.7   25 9.3
2004-11-23 07:33:50 51°13.621 2°56.061 125.7   7 9.3
2004-11-23 07:33:56 51°13.621 2°56.061 125.7   302 9.3
2004-11-23 07:34:01 51°13.621 2°56.061 125.7   333 9.3
2004-11-23 07:34:06 51°13.621 2°56.061 125.7   19 9.2
2004-11-23 07:34:10 51°13.621 2°56.061 125.7   353 9.3
2004-11-23 07:34:16 51°13.621 2°56.06 125.7   239 9.3
2004-11-23 07:34:20 51°13.62 2°56.06 125.7   337 9.3
2004-11-23 07:34:26 51°13.62 2°56.06 125.7   337 9.3
2004-11-23 07:34:28 51°13.62 2°56.06 125.7   195 9.3
2004-11-23 07:34:36 51°13.62 2°56.06 125.7   195 9.3
2004-11-23 07:34:40 51°13.619 2°56.06 125.7   216 9.2
2004-11-23 07:34:46 51°13.619 2°56.06 125.7   252 9.3
2004-11-23 07:34:50 51°13.619 2°56.06 125.7   200 9.3
2004-11-23 07:34:56 51°13.619 2°56.06 125.7   262 9.3
2004-11-23 07:35:01 51°13.619 2°56.06 125.7   262 9.3
2004-11-23 07:35:05 51°13.619 2°56.06 125.7   262 9.3
2004-11-23 07:35:08 51°13.619 2°56.06 125.7   6 9.3
2004-11-23 07:35:16 51°13.619 2°56.06 125.7   269 9.3
2004-11-23 07:35:21 51°13.62 2°56.06 125.7   308 9.3
2004-11-23 07:35:24 51°13.62 2°56.06 125.7   254 9.3
2004-11-23 07:35:30 51°13.62 2°56.06 125.7   254 9.3
2004-11-23 07:35:36 51°13.62 2°56.06 125.7   164 9.3
2004-11-23 07:35:40 51°13.62 2°56.061 125.7   322 9.3
2004-11-23 07:35:46 51°13.62 2°56.061 125.7   322 9.3
2004-11-23 07:35:48 51°13.62 2°56.061 125.7   337 9.3
2004-11-23 07:36:02 51°13.62 2°56.06 125.7   359 9.3
2004-11-23 07:36:08 51°13.62 2°56.061 125.7   359 9.3
2004-11-23 07:36:11 51°13.619 2°56.061 125.7   20 9.3
2004-11-23 07:36:17 51°13.619 2°56.06 125.7   342 9.3
2004-11-23 07:36:22 51°13.619 2°56.06 125.7   226 9.3
2004-11-23 07:36:26 51°13.619 2°56.06 125.7   226 9.3
2004-11-23 07:36:36 51°13.618 2°56.06 125.7   192 9.3
2004-11-23 07:36:41 51°13.618 2°56.06 125.7   246 9.3
2004-11-23 07:36:44 51°13.618 2°56.06 125.7   243 9.3
2004-11-23 07:36:50 51°13.618 2°56.06 125.7   219 9.3
2004-11-23 07:36:53 51°13.618 2°56.06 125.7   359 9.3
2004-11-23 07:37:00 51°13.618 2°56.06 125.7   267 9.3
2004-11-23 07:37:04 51°13.618 2°56.06 125.7   267 9.3
2004-11-23 07:37:10 51°13.619 2°56.06 125.7   13 9.3
2004-11-23 07:37:15 51°13.619 2°56.06 125.7   287 9.3
2004-11-23 07:37:20 51°13.619 2°56.06 125.7   298 9.3
2004-11-23 07:37:26 51°13.619 2°56.06 125.7   216 9.3
2004-11-23 07:37:28 51°13.619 2°56.06 125.7   216 9.3
2004-11-23 07:37:36 51°13.619 2°56.06 125.7   263 9.3
2004-11-23 07:37:40 51°13.619 2°56.06 125.7   227 9.3
2004-11-23 07:37:46 51°13.619 2°56.06 125.7   227 9.3
2004-11-23 07:37:50 51°13.618 2°56.06 125.7   18 9.3
2004-11-23 07:37:56 51°13.617 2°56.06 125.7   312 9.3
2004-11-23 07:38:00 51°13.617 2°56.06 125.7   17 9.3
2004-11-23 07:38:15 51°13.617 2°56.06 125.7   180 9.3
2004-11-23 07:38:20 51°13.617 2°56.06 125.7   178 9.3
2004-11-23 07:38:23 51°13.617 2°56.06 125.7   21 9.4
2004-11-23 07:38:30 51°13.617 2°56.06 125.7   21 9.4
2004-11-23 07:38:34 51°13.617 2°56.059 125.7   191 9.4
2004-11-23 07:38:40 51°13.617 2°56.06 125.7   226 9.4
2004-11-23 07:38:43 51°13.617 2°56.06 125.7   235 9.4
2004-11-23 07:38:50 51°13.617 2°56.06 125.7   235 9.4
2004-11-23 07:38:53 51°13.617 2°56.06 125.7   290 9.4
2004-11-23 07:39:06 51°13.617 2°56.06 125.7   43 9.4
2004-11-23 07:39:12 51°13.617 2°56.06 125.7   43 9.4
2004-11-23 07:39:16 51°13.617 2°56.059 125.7   227 9.4
2004-11-23 07:39:22 51°13.617 2°56.059 125.7   15 9.4
2004-11-23 07:39:26 51°13.617 2°56.059 125.7   15 9.4
2004-11-23 07:39:32 51°13.617 2°56.059 125.7   29 9.4
2004-11-23 07:39:37 51°13.616 2°56.059 125.7   21 9.4
2004-11-23 07:39:42 51°13.617 2°56.059 125.7   339 9.4
2004-11-23 07:39:46 51°13.617 2°56.059 125.7   8 9.4
2004-11-23 07:39:52 51°13.617 2°56.059 125.7   326 9.3
2004-11-23 07:39:56 51°13.617 2°56.06 125.7   10 9.3
2004-11-23 07:40:02 51°13.617 2°56.06 125.7   175 9.4
2004-11-23 07:40:06 51°13.618 2°56.06 125.7   250 9.4
2004-11-23 07:40:12 51°13.618 2°56.06 125.7   250 9.4
2004-11-23 07:40:15 51°13.618 2°56.06 125.8   265 9.4
2004-11-23 07:40:20 51°13.618 2°56.06 125.8   35 9.4
2004-11-23 07:40:34 51°13.617 2°56.06 125.8   327 9.3
2004-11-23 07:40:40 51°13.617 2°56.06 125.9   329 9.3
2004-11-23 07:40:45 51°13.617 2°56.06 125.9   29 9.3
2004-11-23 07:40:50 51°13.617 2°56.06 125.9   29 9.3
2004-11-23 07:40:54 51°13.617 2°56.06 125.9   321 9.3
2004-11-23 07:41:00 51°13.617 2°56.06 125.9   173 9.3
2004-11-23 07:41:12 51°13.617 2°56.06 125.9   173 9.4
2004-11-23 07:41:20 51°13.617 2°56.06 125.9   347 9.4
2004-11-23 07:41:22 51°13.617 2°56.06 125.9   331 9.4
2004-11-23 07:41:34 51°13.617 2°56.06 125.8   331 9.4
2004-11-23 07:41:39 51°13.617 2°56.06 125.8   317 9.4
2004-11-23 07:41:45 51°13.617 2°56.061 125.8   324 9.4
2004-11-23 07:41:50 51°13.617 2°56.061 125.8   324 9.3
2004-11-23 07:41:54 51°13.617 2°56.061 125.8   324 9.3
2004-11-23 07:42:00 51°13.617 2°56.061 125.8   37 9.3
2004-11-23 07:42:05 51°13.618 2°56.061 125.8   228 9.3
2004-11-23 07:42:10 51°13.618 2°56.061 125.8   228 9.3
2004-11-23 07:42:14 51°13.618 2°56.061 125.8   228 9.3
2004-11-23 07:42:18 51°13.618 2°56.061 125.8   228 9.3
2004-11-23 07:42:24 51°13.617 2°56.061 125.8   256 9.4
2004-11-23 07:42:28 51°13.617 2°56.061 125.8   17 9.4
2004-11-23 07:42:32 51°13.617 2°56.061 125.8   202 9.3
2004-11-23 07:42:50 51°13.617 2°56.061 125.8   229 9.4
2004-11-23 07:42:54 51°13.617 2°56.061 125.8   333 9.4
2004-11-23 07:43:00 51°13.617 2°56.061 125.8   225 9.4
2004-11-23 07:43:05 51°13.617 2°56.061 125.8   225 9.4
2004-11-23 07:43:10 51°13.617 2°56.061 125.9   344 9.4
2004-11-23 07:43:16 51°13.618 2°56.061 125.9   21 9.5
2004-11-23 07:43:20 51°13.618 2°56.061 125.9   358 9.5
2004-11-23 07:43:26 51°13.618 2°56.061 125.9   235 9.4
2004-11-23 07:43:28 51°13.618 2°56.061 125.9   161 9.4
2004-11-23 07:43:36 51°13.618 2°56.061 125.9   339 9.5
2004-11-23 07:43:40 51°13.618 2°56.061 125.9   335 9.5
2004-11-23 07:43:46 51°13.618 2°56.061 125.9   351 9.5
2004-11-23 07:43:50 51°13.618 2°56.061 125.9   5 9.5
2004-11-23 07:43:56 51°13.618 2°56.061 125.9   5 9.5
2004-11-23 07:44:00 51°13.618 2°56.061 125.9   265 9.4
2004-11-23 07:44:06 51°13.618 2°56.061 125.9   265 9.4
2004-11-23 07:44:10 51°13.618 2°56.061 125.9   13 9.4
2004-11-23 07:44:16 51°13.618 2°56.061 125.9   13 9.5
2004-11-23 07:44:17 51°13.618 2°56.061 125.9   311 9.5
2004-11-23 07:44:28 51°13.618 2°56.061 125.9   273 9.5
2004-11-23 07:44:32 51°13.617 2°56.061 125.9   342 9.5
2004-11-23 07:44:36 51°13.617 2°56.061 125.9   329 9.4
2004-11-23 07:44:42 51°13.617 2°56.061 125.9   327 9.4
2004-11-23 07:44:48 51°13.617 2°56.061 125.9   327 9.4
2004-11-23 07:44:52 51°13.617 2°56.061 125.9   277 9.4
2004-11-23 07:44:58 51°13.617 2°56.061 125.9   277 9.4
2004-11-23 07:45:02 51°13.617 2°56.061 125.9   30 9.5
2004-11-23 07:45:08 51°13.617 2°56.061 125.9   258 9.4
2004-11-23 07:45:13 51°13.617 2°56.061 125.9   22 9.4
2004-11-23 07:45:18 51°13.617 2°56.061 125.9   344 9.4
2004-11-23 07:45:20 51°13.617 2°56.061 125.9   294 9.4
2004-11-23 07:45:31 51°13.617 2°56.061 125.9   18 9.4
2004-11-23 07:45:36 51°13.617 2°56.061 126   18 9.4
2004-11-23 07:45:40 51°13.617 2°56.061 126   31 9.5
2004-11-23 07:45:46 51°13.618 2°56.061 126   358 9.4
2004-11-23 07:45:50 51°13.618 2°56.061 126   275 9.4
2004-11-23 07:45:56 51°13.618 2°56.061 126   24 9.4
2004-11-23 07:46:01 51°13.618 2°56.061 126   6 9.4
2004-11-23 07:46:04 51°13.618 2°56.061 126   6 9.4
2004-11-23 07:46:08 51°13.618 2°56.061 126   337 9.5
2004-11-23 07:46:24 51°13.618 2°56.061 125.9   324 9.5
2004-11-23 07:46:32 51°13.618 2°56.061 125.9   332 9.5
2004-11-23 07:46:37 51°13.618 2°56.061 125.9   357 9.5
2004-11-23 07:46:42 51°13.618 2°56.061 125.9   357 9.5
2004-11-23 07:46:44 51°13.618 2°56.061 125.9   22 9.5
2004-11-23 07:46:52 51°13.618 2°56.061 125.9   10 9.5
2004-11-23 07:46:56 51°13.618 2°56.061 125.9   353 9.5
2004-11-23 07:47:08 51°13.618 2°56.061 125.9   22 9.4
2004-11-23 07:47:16 51°13.618 2°56.061 125.9   22 9.5
2004-11-23 07:47:21 51°13.618 2°56.061 125.9   22 9.4
2004-11-23 07:47:26 51°13.618 2°56.061 125.9   22 9.3
2004-11-23 07:47:30 51°13.618 2°56.061 125.9   22 9.4
2004-11-23 07:47:36 51°13.618 2°56.061 125.9   17 9.4
2004-11-23 07:47:40 51°13.618 2°56.061 125.9   2 9.4
2004-11-23 07:47:46 51°13.618 2°56.061 125.9   7 9.4
2004-11-23 07:47:50 51°13.619 2°56.061 125.9   14 9.4
2004-11-23 07:47:56 51°13.619 2°56.061 125.9   9 9.4
2004-11-23 07:48:00 51°13.619 2°56.061 125.9   354 9.4
2004-11-23 07:48:05 51°13.619 2°56.061 125.9   354 9.4
2004-11-23 07:48:26 51°13.619 2°56.06 125.9   15 9.4
2004-11-23 07:48:32 51°13.619 2°56.06 125.9     9.4
2004-11-23 07:48:36 51°13.619 2°56.06 125.9     9.4
2004-11-23 07:48:51 51°13.619 2°56.061 125.9   315 9.4
2004-11-23 07:48:56 51°13.619 2°56.061 126   315 9.4
2004-11-23 07:49:00 51°13.619 2°56.061 126   30 9.4
2004-11-23 07:49:05 51°13.619 2°56.061 126   30 9.4
2004-11-23 07:49:10 51°13.619 2°56.061 126   4 9.4
2004-11-23 07:49:16 51°13.618 2°56.061 126   9 9.4
2004-11-23 07:49:20 51°13.618 2°56.061 126   33 9.4
2004-11-23 07:49:25 51°13.618 2°56.061 126   33 9.5
2004-11-23 07:49:46 51°13.618 2°56.061 126     9.4
2004-11-23 07:49:52 51°13.618 2°56.061 126     9.4
2004-11-23 07:49:54 51°13.618 2°56.061 126.1   3 9.4
2004-11-23 07:50:04 51°13.618 2°56.061 126.1   3 9.4
2004-11-23 07:50:08 51°13.618 2°56.061 126.1   4 9.5
2004-11-23 07:50:12 51°13.618 2°56.06 126.1   18 9.5
2004-11-23 07:50:18 51°13.618 2°56.06 126.1   354 9.5
2004-11-23 07:50:24 51°13.618 2°56.06 126.1   345 9.5
2004-11-23 07:50:28 51°13.618 2°56.061 126.1   7 9.5
2004-11-23 07:50:33 51°13.618 2°56.061 126.1   31 9.5
2004-11-23 07:50:36 51°13.618 2°56.061 126.1   2 9.5
2004-11-23 07:50:44 51°13.618 2°56.06 126.1   2 9.5
2004-11-23 07:50:49 51°13.618 2°56.06 126.1   331 9.5
2004-11-23 07:50:54 51°13.618 2°56.06 126.1   12 9.4
2004-11-23 07:50:58 51°13.618 2°56.06 126.1   12 9.4
2004-11-23 07:51:04 51°13.618 2°56.061 126.1   333 9.4
2004-11-23 07:51:08 51°13.618 2°56.061 126.1   30 9.4
2004-11-23 07:51:14 51°13.618 2°56.061 126.1   8 9.4
2004-11-23 07:51:18 51°13.618 2°56.061 126.1   11 9.4
2004-11-23 07:51:23 51°13.618 2°56.061 126.1   348 9.5
2004-11-23 07:51:28 51°13.618 2°56.06 126.1   7 9.5
2004-11-23 07:51:46 51°13.618 2°56.06 126.1   11 9.5
2004-11-23 07:51:52 51°13.618 2°56.06 126.1   2 9.5
2004-11-23 07:51:56 51°13.618 2°56.06 126.1   7 9.5
2004-11-23 07:52:00 51°13.618 2°56.06 126.1   333 9.5
2004-11-23 07:52:06 51°13.617 2°56.06 126.1   3 9.5
2004-11-23 07:52:10 51°13.617 2°56.06 126.1   18 9.5
2004-11-23 07:52:16 51°13.617 2°56.06 126.1   315 9.5
2004-11-23 07:52:20 51°13.617 2°56.06 126.1   348 9.5
2004-11-23 07:52:27 51°13.617 2°56.06 126.1   343 9.5
2004-11-23 07:52:32 51°13.617 2°56.06 126.1   31 9.5
2004-11-23 07:52:33 51°13.617 2°56.06 126.1   302 9.5
2004-11-23 07:52:40 51°13.617 2°56.06 126.1   329 9.5
2004-11-23 07:52:46 51°13.617 2°56.06 126.1   352 9.5
2004-11-23 07:52:51 51°13.617 2°56.06 126.1   339 9.5
2004-11-23 07:52:56 51°13.617 2°56.06 126.1   348 9.5
2004-11-23 07:53:02 51°13.617 2°56.06 126.1   325 9.5
2004-11-23 07:53:06 51°13.617 2°56.06 126.1   17 9.5
2004-11-23 07:53:12 51°13.617 2°56.06 126.1   330 9.5
2004-11-23 07:53:16 51°13.617 2°56.06 126.1   330 9.5
2004-11-23 07:53:22 51°13.617 2°56.06 126.1   6 9.5
2004-11-23 07:53:26 51°13.617 2°56.06 126.1   6 9.5
2004-11-23 07:53:32 51°13.617 2°56.06 126.1   15 9.5
2004-11-23 07:53:36 51°13.617 2°56.06 126.1   15 9.5
2004-11-23 07:53:42 51°13.617 2°56.06 126.1   343 9.5
2004-11-23 07:53:45 51°13.617 2°56.06 126.1   333 9.5
2004-11-23 07:53:49 51°13.617 2°56.06 126.1   334 9.5
2004-11-23 07:53:56 51°13.617 2°56.06 126.1   336 9.5
2004-11-23 07:54:02 51°13.617 2°56.06 126.1   336 9.5
2004-11-23 07:54:05 51°13.616 2°56.06 126.1   327 9.5
2004-11-23 07:54:12 51°13.616 2°56.06 126.1   327 9.5
2004-11-23 07:54:15 51°13.616 2°56.06 126.1   10 9.5
2004-11-23 07:54:22 51°13.616 2°56.06 126.1   12 9.5
2004-11-23 07:54:24 51°13.616 2°56.06 126.1   12 9.5
2004-11-23 07:54:32 51°13.616 2°56.06 126.1   19 9.6
2004-11-23 07:54:36 51°13.616 2°56.06 126.1   308 9.5
2004-11-23 07:54:42 51°13.616 2°56.06 126.1   316 9.5
2004-11-23 07:54:46 51°13.616 2°56.06 126.1   29 9.5
2004-11-23 07:54:51 51°13.616 2°56.06 126.1   19 9.6
2004-11-23 07:54:56 51°13.616 2°56.06 126.1   6 9.6
2004-11-23 07:55:01 51°13.616 2°56.06 126.1   28 9.6
2004-11-23 07:55:07 51°13.616 2°56.06 126.1   350 9.6
2004-11-23 07:55:26 51°13.616 2°56.06 126.2   10 9.5
2004-11-23 07:55:32 51°13.616 2°56.06 126.2   349 9.5
2004-11-23 07:55:36 51°13.616 2°56.06 126.2   349 9.5
2004-11-23 07:55:41 51°13.616 2°56.06 126.2   358 9.6
2004-11-23 07:55:44 51°13.616 2°56.06 126.2   16 9.5
2004-11-23 07:55:51 51°13.616 2°56.06 126.2   356 9.6
2004-11-23 07:55:56 51°13.616 2°56.06 126.2   10 9.6
2004-11-23 07:56:00 51°13.616 2°56.06 126.2   1 9.6
2004-11-23 07:56:06 51°13.616 2°56.06 126.2   351 9.5
2004-11-23 07:56:12 51°13.617 2°56.06 126.2   342 9.6
2004-11-23 07:56:16 51°13.617 2°56.06 126.2   22 9.6
2004-11-23 07:56:21 51°13.617 2°56.06 126.2   331 9.5
2004-11-23 07:56:24 51°13.617 2°56.06 126.2   358 9.6
2004-11-23 07:56:32 51°13.617 2°56.061 126.2   346 9.6
2004-11-23 07:56:34 51°13.617 2°56.061 126.2   5 9.6
2004-11-23 07:56:42 51°13.617 2°56.061 126.2   17 9.6
2004-11-23 07:56:46 51°13.617 2°56.061 126.2   17 9.6
2004-11-23 07:56:52 51°13.617 2°56.061 126.2   24 9.6
2004-11-23 07:56:56 51°13.617 2°56.061 126.2   24 9.6
2004-11-23 07:57:02 51°13.617 2°56.061 126.2   12 9.6
2004-11-23 07:57:06 51°13.617 2°56.061 126.2   12 9.6
2004-11-23 07:57:12 51°13.618 2°56.061 126.2   358 9.6
2004-11-23 07:57:17 51°13.617 2°56.061 126.2   356 9.6
2004-11-23 07:57:20 51°13.617 2°56.061 126.2   23 9.6
2004-11-23 07:57:26 51°13.617 2°56.06 126.2   23 9.5
2004-11-23 07:57:41 51°13.617 2°56.06 126.2   13 9.6
2004-11-23 07:57:50 51°13.617 2°56.06 126.2   14 9.6
2004-11-23 07:57:56 51°13.617 2°56.06 126.3   19 9.6
2004-11-23 07:58:00 51°13.617 2°56.06 126.2   28 9.6
2004-11-23 07:58:06 51°13.617 2°56.06 126.2   28 9.6
2004-11-23 07:58:10 51°13.617 2°56.06 126.2   11 9.6
2004-11-23 07:58:16 51°13.617 2°56.06 126.2   17 9.6
2004-11-23 07:58:20 51°13.617 2°56.06 126.2   17 9.6
2004-11-23 07:58:24 51°13.617 2°56.06 126.2   32 9.6
2004-11-23 07:58:30 51°13.617 2°56.06 126.2   318 9.7
2004-11-23 07:58:36 51°13.617 2°56.06 126.2   318 9.6
2004-11-23 07:58:40 51°13.617 2°56.06 126.2   317 9.6
2004-11-23 07:58:44 51°13.617 2°56.06 126.2   338 9.6
2004-11-23 07:58:49 51°13.617 2°56.06 126.2   338 9.6
2004-11-23 07:58:56 51°13.617 2°56.061 126.2   359 9.6
2004-11-23 07:59:00 51°13.617 2°56.061 126.2   359 9.6
2004-11-23 07:59:04 51°13.618 2°56.061 126.2   33 9.6
2004-11-23 07:59:10 51°13.618 2°56.061 126.2   17 9.6
2004-11-23 07:59:13 51°13.618 2°56.061 126.2   358 9.6
2004-11-23 07:59:20 51°13.618 2°56.061 126.2   8 9.8
2004-11-23 07:59:24 51°13.618 2°56.061 126.2   11 9.6
2004-11-23 07:59:29 51°13.618 2°56.061 126.2   353 9.6
2004-11-23 07:59:34 51°13.618 2°56.061 126.2   358 9.6
2004-11-23 07:59:40 51°13.618 2°56.061 126.2   6 9.7
2004-11-23 07:59:45 51°13.618 2°56.061 126.2   322 9.6
2004-11-23 07:59:50 51°13.618 2°56.061 126.2   322 9.6
2004-11-23 07:59:56 51°13.618 2°56.061 126.2     9.6
2004-11-23 08:00:00 51°13.618 2°56.061 126.2   30 9.7
2004-11-23 08:00:12 51°13.618 2°56.061 126.2   22 9.7
2004-11-23 08:00:20 51°13.618 2°56.061 126.2   22 9.7
2004-11-23 08:00:24 51°13.618 2°56.061 126.2   4 9.7
2004-11-23 08:00:28 51°13.618 2°56.061 126.3   4 9.7
2004-11-23 08:00:50 51°13.618 2°56.061 126.3   356 9.7
2004-11-23 08:00:56 51°13.618 2°56.061 126.3   356 9.7
2004-11-23 08:01:00 51°13.618 2°56.061 126.3   24 9.7
2004-11-23 08:01:06 51°13.618 2°56.061 126.3   24 9.7
2004-11-23 08:01:08 51°13.618 2°56.061 126.3   10 9.7
2004-11-23 08:01:30 51°13.618 2°56.061 126.4   10 9.7
2004-11-23 08:01:36 51°13.618 2°56.061 126.3   5 9.7
2004-11-23 08:01:38 51°13.618 2°56.061 126.3   16 9.7
2004-11-23 08:01:46 51°13.618 2°56.061 126.3   16 9.7
2004-11-23 08:01:50 51°13.618 2°56.061 126.3   3 9.7
2004-11-23 08:01:54 51°13.618 2°56.061 126.3   3 9.7
2004-11-23 08:02:00 51°13.619 2°56.061 126.3   13 9.7
2004-11-23 08:02:03 51°13.619 2°56.061 126.3   36 9.7
2004-11-23 08:02:22 51°13.619 2°56.06 126.3   65 9.7
2004-11-23 08:02:28 51°13.619 2°56.06 126.3     9.7
2004-11-23 08:02:32 51°13.619 2°56.06 126.3   18 9.7
2004-11-23 08:02:36 51°13.619 2°56.06 126.4   18 9.7
2004-11-23 08:02:42 51°13.619 2°56.06 126.4   18 9.7
2004-11-23 08:02:48 51°13.618 2°56.06 126.4   354 9.7
2004-11-23 08:02:52 51°13.618 2°56.06 126.4   357 9.7
2004-11-23 08:02:58 51°13.618 2°56.06 126.4   10 9.7
2004-11-23 08:03:02 51°13.618 2°56.06 126.4   11 9.7
2004-11-23 08:03:08 51°13.618 2°56.06 126.4   319 9.7
2004-11-23 08:03:10 51°13.618 2°56.06 126.4   6 9.7
2004-11-23 08:03:17 51°13.618 2°56.06 126.4   6 9.7
2004-11-23 08:03:22 51°13.618 2°56.06 126.4   2 9.7
2004-11-23 08:03:27 51°13.618 2°56.061 126.4   16 9.7
2004-11-23 08:03:30 51°13.618 2°56.061 126.4   338 9.7
2004-11-23 08:03:36 51°13.619 2°56.061 126.4   338 9.7
2004-11-23 08:03:42 51°13.619 2°56.061 126.4   320 9.7
2004-11-23 08:03:48 51°13.619 2°56.061 126.4   320 9.7
2004-11-23 08:03:51 51°13.619 2°56.061 126.4   26 9.7
2004-11-23 08:03:58 51°13.619 2°56.061 126.4   350 9.7
2004-11-23 08:04:02 51°13.619 2°56.061 126.4   344 9.8
2004-11-23 08:04:05 51°13.619 2°56.061 126.4   344 9.7
2004-11-23 08:04:12 51°13.619 2°56.061 126.4   228 9.7
2004-11-23 08:04:17 51°13.619 2°56.061 126.4   7 9.7
2004-11-23 08:04:21 51°13.619 2°56.061 126.4   40 9.7
2004-11-23 08:04:26 51°13.619 2°56.061 126.4   13 9.7
2004-11-23 08:04:33 51°13.619 2°56.061 126.4   30 9.7
2004-11-23 08:04:37 51°13.619 2°56.061 126.4   26 9.7
2004-11-23 08:04:41 51°13.619 2°56.061 126.4   65 9.7
2004-11-23 08:04:47 51°13.619 2°56.061 126.4   20 9.7
2004-11-23 08:04:53 51°13.619 2°56.061 126.4   20 9.7
2004-11-23 08:04:58 51°13.619 2°56.061 126.4   39 9.7
2004-11-23 08:05:23 51°13.62 2°56.06 126.4   13 9.8
2004-11-23 08:05:28 51°13.62 2°56.06 126.4   20 9.8
2004-11-23 08:05:33 51°13.62 2°56.06 126.4   359 9.8
2004-11-23 08:05:38 51°13.62 2°56.06 126.4   29 9.8
2004-11-23 08:05:43 51°13.62 2°56.06 126.4   270 9.7
2004-11-23 08:05:47 51°13.62 2°56.06 126.4   16 9.8
2004-11-23 08:05:53 51°13.62 2°56.06 126.4   16 9.8
2004-11-23 08:05:58 51°13.62 2°56.06 126.4   350 9.7
2004-11-23 08:06:03 51°13.62 2°56.06 126.4   359 9.7
2004-11-23 08:06:08 51°13.62 2°56.06 126.4   357 9.7
2004-11-23 08:06:13 51°13.62 2°56.06 126.4   6 9.7
2004-11-23 08:06:17 51°13.62 2°56.06 126.4   13 9.7
2004-11-23 08:06:23 51°13.62 2°56.06 126.4   349 9.7
2004-11-23 08:06:28 51°13.62 2°56.06 126.4   4 9.7
2004-11-23 08:06:34 51°13.62 2°56.06 126.4   4 9.7
2004-11-23 08:06:37 51°13.62 2°56.06 126.4   4 9.8
2004-11-23 08:06:43 51°13.62 2°56.06 126.4   322 9.8
2004-11-23 08:06:49 51°13.62 2°56.06 126.4   7 9.8
2004-11-23 08:06:53 51°13.62 2°56.06 126.4   2 9.8
2004-11-23 08:06:57 51°13.62 2°56.06 126.4   344 9.8
2004-11-23 08:07:03 51°13.62 2°56.06 126.4   354 9.8
2004-11-23 08:07:07 51°13.62 2°56.06 126.4   355 9.8
2004-11-23 08:07:13 51°13.62 2°56.06 126.4   358 9.8
2004-11-23 08:07:18 51°13.62 2°56.06 126.4   5 9.8
2004-11-23 08:07:21 51°13.62 2°56.06 126.4   1 9.8
2004-11-23 08:07:27 51°13.62 2°56.06 126.4   11 9.8
2004-11-23 08:07:55 51°13.62 2°56.061 126.4   353 9.8
2004-11-23 08:08:00 51°13.62 2°56.061 126.4   16 9.8
2004-11-23 08:08:05 51°13.62 2°56.061 126.4   351 9.8
2004-11-23 08:08:09 51°13.62 2°56.061 126.4   18 9.8
2004-11-23 08:08:14 51°13.62 2°56.061 126.4   336 9.8
2004-11-23 08:08:20 51°13.62 2°56.061 126.4   9 9.8
2004-11-23 08:08:25 51°13.62 2°56.061 126.4   9 9.8
2004-11-23 08:08:30 51°13.62 2°56.061 126.4   354 9.8
2004-11-23 08:08:35 51°13.62 2°56.061 126.4   11 9.8
2004-11-23 08:08:39 51°13.619 2°56.061 126.4   346 9.8
2004-11-23 08:08:45 51°13.619 2°56.061 126.4   20 9.8
2004-11-23 08:08:49 51°13.619 2°56.061 126.4   20 9.8
2004-11-23 08:09:07 51°13.618 2°56.061 125.4 0.1 183 9.8
2004-11-23 08:09:13 51°13.619 2°56.061 125.1   156 9.9
2004-11-23 08:09:17 51°13.618 2°56.061 125 0.1 238 9.8
2004-11-23 08:09:21 51°13.619 2°56.061 125.3 0.1 345 9.9
2004-11-23 08:09:59 51°13.618 2°56.061 125.5   292 9.8
2004-11-23 08:10:05 51°13.618 2°56.061 125.5   321 9.9
2004-11-23 08:10:09 51°13.618 2°56.061 125.6   321 9.8
2004-11-23 08:10:15 51°13.618 2°56.061 125.7   102 9.9
2004-11-23 08:10:19 51°13.618 2°56.061 125.7   102 9.9
2004-11-23 08:10:31 51°13.618 2°56.061 125.7   102 9.9
2004-11-23 08:10:35 51°13.618 2°56.061 125.7   102 9.9
2004-11-23 08:10:41 51°13.618 2°56.061 125.6   102 10
2004-11-23 08:10:47 51°13.618 2°56.061 125.5   18 9.8
2004-11-23 08:10:51 51°13.618 2°56.061 125.5   18 9.9
2004-11-23 08:10:57 51°13.618 2°56.061 125.5 0.1 28 9.9
2004-11-23 08:11:01 51°13.618 2°56.061 125.5   44 9.9
2004-11-23 08:11:06 51°13.618 2°56.061 125.5   319 9.9
2004-11-23 08:11:11 51°13.618 2°56.061 125.5   257 9.8
2004-11-23 08:11:16 51°13.618 2°56.061 125.5   88 9.9
2004-11-23 08:11:21 51°13.618 2°56.061 125.6 0.1 49 9.9
2004-11-23 08:11:24 51°13.618 2°56.061 125.7   336 9.9
2004-11-23 08:11:29 51°13.618 2°56.061 125.7   200 9.9
2004-11-23 08:11:33 51°13.617 2°56.062 125.7   25 9.9
2004-11-23 08:11:50 51°13.617 2°56.062 125.7   25 9.9
2004-11-23 08:11:56 51°13.617 2°56.062 125.7   25 9.9
2004-11-23 08:12:01 51°13.617 2°56.062 125.9   276 9.9
2004-11-23 08:12:05 51°13.617 2°56.062 126.1   251 9.9
2004-11-23 08:12:11 51°13.617 2°56.062 126.3   251 9.9
2004-11-23 08:12:14 51°13.617 2°56.062 126.7   251 9.9
2004-11-23 08:12:25 51°13.617 2°56.061 127.1   263 9.9
2004-11-23 08:12:29 51°13.617 2°56.061 127.3   351 9.9
2004-11-23 08:12:35 51°13.617 2°56.061 127.4   336 9.9
2004-11-23 08:12:39 51°13.617 2°56.061 127.4   33 10
2004-11-23 08:12:45 51°13.617 2°56.061 127.4   50 10
2004-11-23 08:12:49 51°13.617 2°56.061 127.3 0.1 39 10
2004-11-23 08:12:55 51°13.617 2°56.062 127 0.1 59 9.9
2004-11-23 08:13:01 51°13.617 2°56.061 126.3 0.1 198 9.9
2004-11-23 08:13:05 51°13.617 2°56.061 124.9 0.1 185 10
2004-11-23 08:13:10 51°13.617 2°56.061 123.8 0.1 197 10
2004-11-23 08:13:15 51°13.617 2°56.061 122.7 0.1 195 10
2004-11-23 08:13:21 51°13.617 2°56.061 121.4 0.1 186 9.9
2004-11-23 08:13:33 51°13.617 2°56.061 117.3 0.1 188 10
2004-11-23 08:13:38 51°13.616 2°56.061 115.8 0.1 199 10.1
2004-11-23 08:13:53 51°13.617 2°56.059 111.9 0.6 285 10.3
2004-11-23 08:13:57 51°13.617 2°56.057 111.1 0.6 285 10.4
2004-11-23 08:14:01 51°13.618 2°56.054 110.8 1.3 287 10.6
2004-11-23 08:14:07 51°13.619 2°56.05 110.7 1.3 287 10.8
2004-11-23 08:14:10 51°13.619 2°56.048 111 1.9 292 10.9
2004-11-23 08:14:17 51°13.62 2°56.042 111.6 2.1 290 -999
2004-11-23 08:14:23 51°13.622 2°56.037 112.3 2.2 293 -999
2004-11-23 08:14:26 51°13.623 2°56.034 112.6 2.2 293 -999
2004-11-23 08:14:33 51°13.625 2°56.026 112.5 2.5 292 -999
2004-11-23 08:14:37 51°13.626 2°56.022 112.1 2.7 290 -999
2004-11-23 08:14:45 51°13.628 2°56.012 111.1 2.7 290 -999
2004-11-23 08:14:51 51°13.629 2°56.005 110.3 2.7 290 -999
2004-11-23 08:14:57 51°13.63 2°56 109.4 2.3 288 -999
2004-11-23 08:15:02 51°13.631 2°55.996 108.8 1.8 285 -999
2004-11-23 08:15:06 51°13.631 2°55.994 108.8 1.8 285 -999
2004-11-23 08:15:09 51°13.631 2°55.994 109.7 0.8 284 -999
2004-11-23 08:15:17 51°13.63 2°55.994 112 0.8 284 -999
2004-11-23 08:15:41 51°13.626 2°56.005 127.8 1.5 121 -999
2004-11-23 08:15:49 51°13.624 2°56.01 130.3 1.8 122 -999
2004-11-23 08:15:54 51°13.623 2°56.014 131.6 1.9 124 -999
2004-11-23 08:15:58 51°13.621 2°56.017 133.2 1.9 124 12.7
2004-11-23 08:16:01 51°13.62 2°56.02 134.2 2.2 125 12.6
2004-11-23 08:16:09 51°13.617 2°56.027 135 2.5 126 12.7
2004-11-23 08:16:11 51°13.616 2°56.029 135.6 2.5 126 12.6
2004-11-23 08:16:17 51°13.613 2°56.035 136.1 3 128 12.8
2004-11-23 08:16:23 51°13.609 2°56.042 136.8 3.2 130 12.7
2004-11-23 08:16:27 51°13.607 2°56.046 137.5 3.4 131 12.6
2004-11-23 08:16:32 51°13.604 2°56.052 138.3 3.6 133 12.5
2004-11-23 08:16:39 51°13.598 2°56.061 138.7 3.7 133 12.4
2004-11-23 08:16:41 51°13.597 2°56.063 138.9 3.9 134 12.6
2004-11-23 08:16:47 51°13.592 2°56.071 138.9 4 134 12.5
2004-11-23 08:16:51 51°13.589 2°56.076 138.7 4 134 12.4
2004-11-23 08:17:03 51°13.58 2°56.091 138.5 4 134 12
2004-11-23 08:17:08 51°13.577 2°56.097 138.2 3.7 133 12.2
2004-11-23 08:17:13 51°13.573 2°56.103 137.9 3.7 133 12.2
2004-11-23 08:17:18 51°13.569 2°56.109 137.6 3.7 133 12.2
2004-11-23 08:17:21 51°13.567 2°56.112 137 3.7 133 12.3
2004-11-23 08:17:55 51°13.545 2°56.153 130.1 3.6 124 12.9
2004-11-23 08:18:00 51°13.543 2°56.16 126.2 3.6 119 12.9
2004-11-23 08:18:05 51°13.541 2°56.168 120.7 3.7 115 12.8
2004-11-23 08:18:09 51°13.54 2°56.175 114.4 3.8 104 12.5
2004-11-23 08:18:15 51°13.539 2°56.185 107.5 3.8 104 12.7
2004-11-23 08:18:20 51°13.539 2°56.193 100.4 3.6 91 12.6
2004-11-23 08:18:23 51°13.539 2°56.197 93.5 3.5 86 12.6
2004-11-23 08:18:29 51°13.54 2°56.205 87.5 3.2 85 12.7
2004-11-23 08:18:34 51°13.54 2°56.211 85 2.4 82 12.8
2004-11-23 08:18:40 51°13.541 2°56.215 81.1 1.6 77 12.2
2004-11-23 08:18:43 51°13.541 2°56.217 76.1 1.2 76 11.8
2004-11-23 08:19:14 51°13.538 2°56.214 57.9 1.1 78 -999
2004-11-23 08:19:21 51°13.536 2°56.211 56.4 -999 -999 -999
2004-11-23 08:19:25 51°13.535 2°56.21 55.5 1.1 225 -999
2004-11-23 08:19:30 51°13.534 2°56.21 54.9 1.1 225 -999
2004-11-23 08:19:34 51°13.534 2°56.21 52.3 0.4 48 -999
2004-11-23 08:19:39 51°13.534 2°56.211 48.5 0.8 56 -999
2004-11-23 08:19:46 51°13.536 2°56.214 43.8 0.8 56 -999
2004-11-23 08:19:50 51°13.537 2°56.215 38.4 1 38 -999
2004-11-23 08:19:56 51°13.537 2°56.216 35 0.7 53 -999
2004-11-23 08:19:59 51°13.537 2°56.216 32.6 0.7 53 5.4
2004-11-23 08:20:05 51°13.536 2°56.215 29.7 0.7 53 5.4
2004-11-23 08:20:07 51°13.535 2°56.215 27.7 1.3 197 5.2
2004-11-23 08:20:29 51°13.532 2°56.214 22.3 1.3 197 12.6
2004-11-23 08:20:35 51°13.535 2°56.215 17.2 1.9 11 -999
2004-11-23 08:20:39 51°13.537 2°56.216 8.5 2.2 7 -999
2004-11-23 08:20:47 51°13.541 2°56.216 359.4 1.7 359 -999
2004-11-23 08:20:52 51°13.543 2°56.216 355.5 1 2 -999
2004-11-23 08:20:56 51°13.543 2°56.216 352.7 0.5 12 11.6
2004-11-23 08:20:58 51°13.543 2°56.217 349.8 0.4 78 11.7
2004-11-23 08:21:15 51°13.539 2°56.221 345.1 1.4 153 12